createdAt,value
2023-03-06T00:00:24.185Z,1342
2023-03-06T00:01:37.476Z,1344
2023-03-06T00:02:40.227Z,1346
2023-03-06T00:03:54.095Z,1345
2023-03-06T00:05:06.956Z,1344
2023-03-06T00:06:20.482Z,1343
2023-03-06T00:07:23.216Z,1343
2023-03-06T00:08:37.001Z,1344
2023-03-06T00:09:49.683Z,1343
2023-03-06T00:10:54.948Z,1339
2023-03-06T00:12:07.641Z,1336
2023-03-06T00:13:21.001Z,1333
2023-03-06T00:14:23.859Z,1332
2023-03-06T00:15:37.489Z,1332
2023-03-06T00:16:50.182Z,1334
2023-03-06T00:17:53.961Z,1334
2023-03-06T00:19:06.695Z,1333
2023-03-06T00:20:20.754Z,1331
2023-03-06T00:21:23.905Z,1331
2023-03-06T00:22:37.482Z,1330
2023-03-06T00:23:50.493Z,1332
2023-03-06T00:25:33.516Z,1331
2023-03-06T00:26:06.400Z,1331
2023-03-06T00:27:29.069Z,1329
2023-03-06T00:28:53.027Z,1330
2023-03-06T00:29:36.541Z,1328
2023-03-06T00:30:49.418Z,1328
2023-03-06T00:31:53.494Z,1329
2023-03-06T00:33:15.751Z,1330
2023-03-06T00:34:19.487Z,1329
2023-03-06T00:35:22.265Z,1324
2023-03-06T00:36:35.980Z,1324
2023-03-06T00:37:48.637Z,1322
2023-03-06T00:39:01.975Z,1321
2023-03-06T00:40:04.684Z,1321
2023-03-06T00:41:17.964Z,1323
2023-03-06T00:42:30.649Z,1320
2023-03-06T00:43:33.959Z,1320
2023-03-06T00:44:46.706Z,1316
2023-03-06T00:46:00.023Z,1315
2023-03-06T00:47:12.782Z,1315
2023-03-06T00:48:16.484Z,1317
2023-03-06T00:49:29.180Z,1317
2023-03-06T00:50:42.502Z,1317
2023-03-06T00:51:45.235Z,1316
2023-03-06T00:52:58.992Z,1315
2023-03-06T00:54:11.694Z,1310
2023-03-06T00:55:15.600Z,1312
2023-03-06T00:56:28.461Z,1311
2023-03-06T00:57:41.990Z,1309
2023-03-06T00:58:44.733Z,1310
2023-03-06T00:59:58.519Z,1314
2023-03-06T01:01:11.258Z,1314
2023-03-06T01:02:25.569Z,1317
2023-03-06T01:03:28.355Z,1316
2023-03-06T01:04:42.000Z,1317
2023-03-06T01:05:44.743Z,1317
2023-03-06T01:06:58.469Z,1317
2023-03-06T01:08:11.181Z,1320
2023-03-06T01:09:24.487Z,1318
2023-03-06T01:10:27.282Z,1316
2023-03-06T01:11:41.022Z,1316
2023-03-06T01:12:53.733Z,1314
2023-03-06T01:13:57.475Z,1314
2023-03-06T01:15:10.174Z,1315
2023-03-06T01:16:24.155Z,1312
2023-03-06T01:17:27.029Z,1310
2023-03-06T01:18:40.497Z,1309
2023-03-06T01:19:53.196Z,1308
2023-03-06T01:20:57.004Z,1306
2023-03-06T01:22:09.711Z,1303
2023-03-06T01:23:23.494Z,1300
2023-03-06T01:24:26.238Z,1298
2023-03-06T01:25:40.000Z,1296
2023-03-06T01:26:52.747Z,1298
2023-03-06T01:28:06.470Z,1293
2023-03-06T01:29:09.223Z,1294
2023-03-06T01:30:22.993Z,1292
2023-03-06T01:31:35.745Z,1290
2023-03-06T01:32:39.523Z,1290
2023-03-06T01:33:52.468Z,1288
2023-03-06T01:35:05.986Z,1283
2023-03-06T01:36:08.767Z,1278
2023-03-06T01:37:22.507Z,1278
2023-03-06T01:38:35.221Z,1274
2023-03-06T01:39:39.019Z,1267
2023-03-06T01:40:51.765Z,1271
2023-03-06T01:42:05.522Z,1269
2023-03-06T01:43:08.309Z,1267
2023-03-06T01:44:21.997Z,1267
2023-03-06T01:45:34.775Z,1260
2023-03-06T01:46:48.511Z,1265
2023-03-06T01:47:51.296Z,1265
2023-03-06T01:49:04.981Z,1260
2023-03-06T01:50:17.708Z,1258
2023-03-06T01:51:21.523Z,1257
2023-03-06T01:52:34.258Z,1251
2023-03-06T01:53:47.980Z,1252
2023-03-06T01:54:50.743Z,1255
2023-03-06T01:56:04.499Z,1255
2023-03-06T01:57:17.232Z,1254
2023-03-06T01:58:20.984Z,1251
2023-03-06T01:59:33.707Z,1248
2023-03-06T02:00:47.022Z,1246
2023-03-06T02:01:59.840Z,1247
2023-03-06T02:03:03.491Z,1244
2023-03-06T02:04:16.232Z,1243
2023-03-06T02:05:29.970Z,1238
2023-03-06T02:06:32.729Z,1236
2023-03-06T02:07:46.472Z,1232
2023-03-06T02:08:59.182Z,1231
2023-03-06T02:10:02.994Z,1231
2023-03-06T02:11:15.761Z,1228
2023-03-06T02:12:29.517Z,1227
2023-03-06T02:13:32.302Z,1228
2023-03-06T02:14:45.992Z,1227
2023-03-06T02:15:58.737Z,1226
2023-03-06T02:17:12.526Z,1226
2023-03-06T02:18:15.356Z,1223
2023-03-06T02:19:29.005Z,1223
2023-03-06T02:20:41.754Z,1223
2023-03-06T02:21:45.530Z,1222
2023-03-06T02:23:12.904Z,1224
2023-03-06T02:24:05.739Z,1220
2023-03-06T02:25:19.421Z,1221
2023-03-06T02:26:32.167Z,1217
2023-03-06T02:27:35.958Z,1214
2023-03-06T02:28:48.696Z,1211
2023-03-06T02:30:02.413Z,1210
2023-03-06T02:31:05.239Z,1208
2023-03-06T02:32:38.470Z,1209
2023-03-06T02:33:31.484Z,1212
2023-03-06T02:34:34.255Z,1209
2023-03-06T02:35:48.084Z,1210
2023-03-06T02:37:00.901Z,1208
2023-03-06T02:38:14.447Z,1206
2023-03-06T02:39:17.207Z,1205
2023-03-06T02:40:30.954Z,1202
2023-03-06T02:41:43.697Z,1201
2023-03-06T02:42:47.414Z,1203
2023-03-06T02:44:00.159Z,1204
2023-03-06T02:45:13.956Z,1203
2023-03-06T02:46:16.744Z,1201
2023-03-06T02:47:30.441Z,1200
2023-03-06T02:48:43.201Z,1200
2023-03-06T02:49:56.923Z,1203
2023-03-06T02:50:59.691Z,1203
2023-03-06T02:52:13.443Z,1202
2023-03-06T02:53:26.187Z,1203
2023-03-06T02:54:29.923Z,1200
2023-03-06T02:55:42.662Z,1199
2023-03-06T02:56:56.415Z,1199
2023-03-06T02:57:59.179Z,1198
2023-03-06T02:59:12.933Z,1196
2023-03-06T03:00:25.724Z,1195
2023-03-06T03:01:29.506Z,1191
2023-03-06T03:02:42.316Z,1192
2023-03-06T03:03:55.952Z,1192
2023-03-06T03:04:58.723Z,1193
2023-03-06T03:06:12.434Z,1193
2023-03-06T03:07:25.170Z,1190
2023-03-06T03:08:38.949Z,1191
2023-03-06T03:09:41.755Z,1191
2023-03-06T03:10:55.459Z,1192
2023-03-06T03:12:08.229Z,1193
2023-03-06T03:13:11.951Z,1192
2023-03-06T03:14:24.726Z,1190
2023-03-06T03:15:38.524Z,1191
2023-03-06T03:16:41.474Z,1189
2023-03-06T03:17:54.933Z,1186
2023-03-06T03:19:07.662Z,1186
2023-03-06T03:20:11.489Z,1183
2023-03-06T03:21:24.225Z,1182
2023-03-06T03:22:37.954Z,1179
2023-03-06T03:23:40.782Z,1175
2023-03-06T03:24:54.545Z,1172
2023-03-06T03:26:07.382Z,1171
2023-03-06T03:27:20.934Z,1169
2023-03-06T03:28:23.718Z,1168
2023-03-06T03:29:37.424Z,1167
2023-03-06T03:30:50.196Z,1165
2023-03-06T03:31:53.956Z,1164
2023-03-06T03:33:06.711Z,1163
2023-03-06T03:34:20.483Z,1163
2023-03-06T03:35:32.856Z,1163
2023-03-06T03:36:36.487Z,1160
2023-03-06T03:37:49.241Z,1160
2023-03-06T03:39:02.943Z,1158
2023-03-06T03:40:05.719Z,1160
2023-03-06T03:41:19.483Z,1158
2023-03-06T03:42:32.252Z,1159
2023-03-06T03:43:35.964Z,1157
2023-03-06T03:44:48.732Z,1152
2023-03-06T03:46:02.447Z,1151
2023-03-06T03:47:05.252Z,1151
2023-03-06T03:48:18.948Z,1149
2023-03-06T03:49:31.755Z,1149
2023-03-06T03:50:35.451Z,1148
2023-03-06T03:51:48.185Z,1147
2023-03-06T03:53:02.016Z,1145
2023-03-06T03:54:04.788Z,1142
2023-03-06T03:55:18.432Z,1143
2023-03-06T03:56:31.211Z,1142
2023-03-06T03:57:34.988Z,1139
2023-03-06T03:58:47.718Z,1138
2023-03-06T04:00:01.482Z,1138
2023-03-06T04:01:04.279Z,1137
2023-03-06T04:02:17.970Z,1135
2023-03-06T04:03:30.857Z,1137
2023-03-06T04:04:44.495Z,1136
2023-03-06T04:05:47.427Z,1136
2023-03-06T04:07:00.954Z,1133
2023-03-06T04:08:13.733Z,1134
2023-03-06T04:09:17.462Z,1133
2023-03-06T04:10:30.210Z,1132
2023-03-06T04:11:43.960Z,1132
2023-03-06T04:12:46.733Z,1131
2023-03-06T04:14:00.438Z,1131
2023-03-06T04:15:13.184Z,1127
2023-03-06T04:16:16.991Z,1121
2023-03-06T04:17:29.819Z,1120
2023-03-06T04:18:43.445Z,1121
2023-03-06T04:19:46.224Z,1118
2023-03-06T04:20:59.973Z,1119
2023-03-06T04:22:12.712Z,1117
2023-03-06T04:23:26.508Z,1118
2023-03-06T04:24:29.278Z,1116
2023-03-06T04:25:42.950Z,1113
2023-03-06T04:26:55.789Z,1116
2023-03-06T04:27:59.500Z,1116
2023-03-06T04:29:12.277Z,1114
2023-03-06T04:30:25.953Z,1110
2023-03-06T04:31:28.859Z,1107
2023-03-06T04:32:42.543Z,1106
2023-03-06T04:33:55.412Z,1104
2023-03-06T04:34:58.978Z,1102
2023-03-06T04:36:11.726Z,1100
2023-03-06T04:37:25.502Z,1100
2023-03-06T04:38:28.305Z,1101
2023-03-06T04:39:41.952Z,1097
2023-03-06T04:40:54.707Z,1094
2023-03-06T04:42:08.473Z,1090
2023-03-06T04:43:11.268Z,1089
2023-03-06T04:44:24.998Z,1090
2023-03-06T04:45:37.814Z,1089
2023-03-06T04:46:41.485Z,1086
2023-03-06T04:47:54.246Z,1086
2023-03-06T04:49:07.991Z,1082
2023-03-06T04:50:10.852Z,1084
2023-03-06T04:51:24.450Z,1084
2023-03-06T04:52:37.197Z,1087
2023-03-06T04:53:40.973Z,1086
2023-03-06T04:54:53.749Z,1086
2023-03-06T04:56:07.491Z,1085
2023-03-06T04:57:10.307Z,1083
2023-03-06T04:58:33.485Z,1083
2023-03-06T04:59:38.850Z,1079
2023-03-06T05:00:43.009Z,1077
2023-03-06T05:01:56.008Z,1082
2023-03-06T05:03:09.499Z,1079
2023-03-06T05:04:12.327Z,1077
2023-03-06T05:05:26.016Z,1077
2023-03-06T05:06:38.772Z,1078
2023-03-06T05:07:42.550Z,1079
2023-03-06T05:08:55.306Z,1079
2023-03-06T05:10:08.970Z,1082
2023-03-06T05:11:11.757Z,1083
2023-03-06T05:12:25.461Z,1082
2023-03-06T05:13:58.058Z,1083
2023-03-06T05:15:01.523Z,1086
2023-03-06T05:16:04.622Z,1089
2023-03-06T05:17:08.535Z,1087
2023-03-06T05:18:11.315Z,1092
2023-03-06T05:19:24.999Z,1095
2023-03-06T05:20:37.725Z,1102
2023-03-06T05:21:51.515Z,1108
2023-03-06T05:22:54.288Z,1118
2023-03-06T05:24:08.010Z,1126
2023-03-06T05:25:20.738Z,1133
2023-03-06T05:26:24.485Z,1141
2023-03-06T05:27:37.232Z,1156
2023-03-06T05:28:51.097Z,1191
2023-03-06T05:29:53.879Z,1242
2023-03-06T05:31:17.523Z,1270
2023-03-06T05:32:20.555Z,1304
2023-03-06T05:33:24.466Z,1319
2023-03-06T05:34:37.212Z,1328
2023-03-06T05:35:51.020Z,1328
2023-03-06T05:36:53.852Z,1341
2023-03-06T05:38:08.275Z,1345
2023-03-06T05:39:22.393Z,1351
2023-03-06T05:40:26.242Z,1355
2023-03-06T05:42:08.736Z,1365
2023-03-06T05:43:01.992Z,1373
2023-03-06T05:43:54.790Z,1374
2023-03-06T05:45:08.610Z,1382
2023-03-06T05:46:21.397Z,1396
2023-03-06T05:47:35.029Z,1407
2023-03-06T05:48:37.814Z,1425
2023-03-06T05:49:51.494Z,1447
2023-03-06T05:50:54.536Z,1463
2023-03-06T05:52:08.032Z,1473
2023-03-06T05:53:20.787Z,1482
2023-03-06T05:54:24.501Z,1484
2023-03-06T05:55:37.246Z,1487
2023-03-06T05:56:50.998Z,1483
2023-03-06T05:57:53.787Z,1486
2023-03-06T05:59:07.514Z,1489
2023-03-06T06:00:20.271Z,1495
2023-03-06T06:01:24.010Z,1499
2023-03-06T06:02:36.784Z,1518
2023-03-06T06:03:50.599Z,1529
2023-03-06T06:04:53.421Z,1538
2023-03-06T06:06:07.011Z,1545
2023-03-06T06:07:19.667Z,1546
2023-03-06T06:08:33.494Z,1543
2023-03-06T06:09:36.132Z,1537
2023-03-06T06:10:52.191Z,1527
2023-03-06T06:11:55.879Z,1522
2023-03-06T06:13:09.103Z,1508
2023-03-06T06:14:21.622Z,1478
2023-03-06T06:15:25.018Z,1414
2023-03-06T06:16:37.592Z,1234
2023-03-06T06:17:50.985Z,1049
2023-03-06T06:18:53.801Z,985
2023-03-06T06:20:07.105Z,914
2023-03-06T06:21:19.591Z,804
2023-03-06T06:22:33.051Z,694
2023-03-06T06:23:35.652Z,677
2023-03-06T06:24:49.010Z,645
2023-03-06T06:26:01.534Z,642
2023-03-06T06:27:05.012Z,627
2023-03-06T06:28:17.521Z,613
2023-03-06T06:29:31.130Z,606
2023-03-06T06:30:33.792Z,599
2023-03-06T06:31:47.006Z,588
2023-03-06T06:32:59.510Z,582
2023-03-06T06:34:13.307Z,576
2023-03-06T06:38:50.819Z,585
2023-03-06T06:39:53.318Z,591
2023-03-06T06:41:35.971Z,601
2023-03-06T06:43:28.649Z,640
2023-03-06T06:44:42.492Z,645
2023-03-06T06:45:45.013Z,656
2023-03-06T06:47:23.113Z,664
2023-03-06T06:48:07.113Z,663
2023-03-06T06:49:19.740Z,660
2023-03-06T06:50:33.025Z,667
2023-03-06T06:51:35.608Z,668
2023-03-06T06:52:49.114Z,673
2023-03-06T06:54:01.600Z,675
2023-03-06T06:55:05.015Z,680
2023-03-06T06:56:17.428Z,681
2023-03-06T06:57:30.488Z,688
2023-03-06T06:58:43.010Z,689
2023-03-06T06:59:46.501Z,692
2023-03-06T07:00:58.948Z,693
2023-03-06T07:02:11.991Z,693
2023-03-06T07:03:14.462Z,693
2023-03-06T07:04:27.485Z,693
2023-03-06T07:05:39.905Z,695
2023-03-06T07:06:53.514Z,700
2023-03-06T07:07:56.062Z,703
2023-03-06T07:09:09.522Z,704
2023-03-06T07:10:21.935Z,708
2023-03-06T07:11:25.506Z,711
2023-03-06T07:12:37.969Z,717
2023-03-06T07:13:51.009Z,718
2023-03-06T07:14:53.715Z,725
2023-03-06T07:16:07.052Z,726
2023-03-06T07:17:19.537Z,730
2023-03-06T07:18:32.520Z,735
2023-03-06T07:19:34.971Z,736
2023-03-06T07:20:48.029Z,738
2023-03-06T07:22:00.473Z,739
2023-03-06T07:23:13.535Z,739
2023-03-06T07:24:16.008Z,741
2023-03-06T07:25:29.027Z,746
2023-03-06T07:26:41.389Z,750
2023-03-06T07:27:51.079Z,754
2023-03-06T07:28:55.663Z,758
2023-03-06T07:30:09.038Z,759
2023-03-06T07:31:21.441Z,757
2023-03-06T07:32:24.500Z,758
2023-03-06T07:33:36.924Z,757
2023-03-06T07:34:50.023Z,761
2023-03-06T07:36:02.441Z,764
2023-03-06T07:37:05.541Z,765
2023-03-06T07:38:17.905Z,768
2023-03-06T07:39:31.023Z,769
2023-03-06T07:40:43.392Z,770
2023-03-06T07:41:46.532Z,775
2023-03-06T07:43:09.410Z,777
2023-03-06T07:44:12.012Z,781
2023-03-06T07:45:14.472Z,784
2023-03-06T07:46:27.537Z,784
2023-03-06T07:47:39.891Z,788
2023-03-06T07:48:53.048Z,793
2023-03-06T07:50:05.118Z,795
2023-03-06T07:51:08.556Z,795
2023-03-06T07:52:20.897Z,798
2023-03-06T07:53:34.043Z,797
2023-03-06T07:54:36.509Z,802
2023-03-06T07:55:49.543Z,803
2023-03-06T07:57:02.048Z,804
2023-03-06T07:58:05.550Z,807
2023-03-06T07:59:17.910Z,805
2023-03-06T08:00:31.560Z,807
2023-03-06T08:01:33.992Z,809
2023-03-06T08:02:47.056Z,814
2023-03-06T08:03:59.643Z,814
2023-03-06T08:05:13.048Z,816
2023-03-06T08:06:15.465Z,815
2023-03-06T08:07:28.545Z,814
2023-03-06T08:08:40.879Z,815
2023-03-06T08:09:54.052Z,814
2023-03-06T08:10:56.459Z,816
2023-03-06T08:12:09.517Z,817
2023-03-06T08:13:21.930Z,817
2023-03-06T08:14:44.571Z,820
2023-03-06T08:15:37.169Z,824
2023-03-06T08:16:50.541Z,828
2023-03-06T08:17:53.190Z,829
2023-03-06T08:19:06.562Z,834
2023-03-06T08:20:18.876Z,839
2023-03-06T08:21:33.342Z,841
2023-03-06T08:22:45.233Z,842
2023-03-06T08:23:48.629Z,843
2023-03-06T08:25:00.974Z,847
2023-03-06T08:26:05.320Z,846
2023-03-06T08:27:17.470Z,843
2023-03-06T08:28:30.531Z,845
2023-03-06T08:29:32.825Z,845
2023-03-06T08:30:45.524Z,848
2023-03-06T08:31:57.663Z,849
2023-03-06T08:33:20.546Z,851
2023-03-06T08:34:13.465Z,851
2023-03-06T08:35:26.585Z,853
2023-03-06T08:36:38.891Z,855
2023-03-06T08:37:52.044Z,854
2023-03-06T08:38:54.477Z,856
2023-03-06T08:40:07.552Z,857
2023-03-06T08:41:20.390Z,857
2023-03-06T08:42:24.034Z,858
2023-03-06T08:43:45.900Z,857
2023-03-06T08:44:49.062Z,861
2023-03-06T08:46:01.411Z,860
2023-03-06T08:47:44.057Z,860
2023-03-06T08:48:16.813Z,860
2023-03-06T08:49:29.145Z,860
2023-03-06T08:50:42.068Z,859
2023-03-06T08:51:44.462Z,858
2023-03-06T08:52:57.545Z,860
2023-03-06T08:54:09.826Z,863
2023-03-06T08:55:15.020Z,863
2023-03-06T08:56:27.485Z,860
2023-03-06T08:57:40.535Z,858
2023-03-06T08:58:42.939Z,857
2023-03-06T08:59:56.098Z,859
2023-03-06T09:01:08.391Z,860
2023-03-06T09:02:21.565Z,861
2023-03-06T09:03:23.993Z,863
2023-03-06T09:04:37.041Z,863
2023-03-06T09:05:49.329Z,864
2023-03-06T09:07:22.047Z,862
2023-03-06T09:08:04.655Z,863
2023-03-06T09:09:16.993Z,862
2023-03-06T09:10:30.086Z,861
2023-03-06T09:11:32.570Z,861
2023-03-06T09:12:50.877Z,860
2023-03-06T09:13:54.468Z,860
2023-03-06T09:15:07.549Z,863
2023-03-06T09:16:19.818Z,863
2023-03-06T09:17:23.100Z,863
2023-03-06T09:18:35.569Z,864
2023-03-06T09:19:48.620Z,866
2023-03-06T09:21:00.925Z,866
2023-03-06T09:22:04.087Z,867
2023-03-06T09:23:16.416Z,868
2023-03-06T09:24:29.563Z,871
2023-03-06T09:25:31.991Z,872
2023-03-06T09:26:46.852Z,874
2023-03-06T09:28:11.000Z,873
2023-03-06T09:29:05.555Z,873
2023-03-06T09:30:37.384Z,877
2023-03-06T09:31:30.581Z,875
2023-03-06T09:32:32.957Z,877
2023-03-06T09:33:46.096Z,879
2023-03-06T09:34:58.422Z,881
2023-03-06T09:36:11.583Z,882
2023-03-06T09:37:16.268Z,884
2023-03-06T09:38:29.605Z,884
2023-03-06T09:39:31.976Z,886
2023-03-06T09:40:45.078Z,886
2023-03-06T09:43:12.908Z,889
2023-03-06T09:44:15.270Z,889
2023-03-06T09:45:28.549Z,889
2023-03-06T09:46:31.054Z,893
2023-03-06T09:47:44.558Z,896
2023-03-06T09:49:06.751Z,898
2023-03-06T09:50:10.090Z,898
2023-03-06T09:51:12.464Z,900
2023-03-06T09:52:25.666Z,901
2023-03-06T09:53:37.946Z,900
2023-03-06T09:54:41.075Z,900
2023-03-06T09:55:53.440Z,900
2023-03-06T09:57:06.651Z,901
2023-03-06T09:58:18.925Z,900
2023-03-06T09:59:22.098Z,903
2023-03-06T10:00:34.370Z,905
2023-03-06T10:01:47.546Z,906
2023-03-06T10:02:50.038Z,908
2023-03-06T10:04:03.085Z,909
2023-03-06T10:05:15.580Z,910
2023-03-06T10:06:28.586Z,910
2023-03-06T10:07:30.936Z,910
2023-03-06T10:08:44.104Z,909
2023-03-06T10:09:56.440Z,911
2023-03-06T10:10:59.577Z,914
2023-03-06T10:12:11.954Z,914
2023-03-06T10:13:25.074Z,914
2023-03-06T10:14:37.357Z,913
2023-03-06T10:15:40.594Z,915
2023-03-06T10:16:52.989Z,913
2023-03-06T10:18:06.081Z,914
2023-03-06T10:19:08.480Z,917
2023-03-06T10:20:21.714Z,916
2023-03-06T10:21:34.054Z,917
2023-03-06T10:23:00.033Z,918
2023-03-06T10:23:53.421Z,919
2023-03-06T10:25:06.564Z,920
2023-03-06T10:26:08.938Z,924
2023-03-06T10:27:22.092Z,925
2023-03-06T10:28:53.824Z,926
2023-03-06T10:30:00.101Z,927
2023-03-06T10:31:04.669Z,929
2023-03-06T10:31:58.140Z,930
2023-03-06T10:33:11.088Z,930
2023-03-06T10:34:23.299Z,929
2023-03-06T10:35:36.588Z,930
2023-03-06T10:36:39.075Z,930
2023-03-06T10:37:52.095Z,929
2023-03-06T10:39:04.312Z,929
2023-03-06T10:40:08.507Z,931
2023-03-06T10:41:20.872Z,931
2023-03-06T10:42:34.106Z,930
2023-03-06T10:43:36.720Z,929
2023-03-06T10:44:59.598Z,929
2023-03-06T10:46:21.616Z,927
2023-03-06T10:47:15.095Z,925
2023-03-06T10:48:17.498Z,925
2023-03-06T10:49:30.602Z,924
2023-03-06T10:50:42.821Z,922
2023-03-06T10:51:46.065Z,921
2023-03-06T10:52:58.280Z,920
2023-03-06T10:54:11.078Z,917
2023-03-06T10:55:23.316Z,913
2023-03-06T10:56:26.601Z,909
2023-03-06T10:57:38.923Z,906
2023-03-06T10:58:52.084Z,903
2023-03-06T11:00:04.304Z,900
2023-03-06T11:01:07.578Z,896
2023-03-06T11:02:19.923Z,895
2023-03-06T11:03:33.096Z,891
2023-03-06T11:04:35.514Z,887
2023-03-06T11:05:48.613Z,882
2023-03-06T11:07:00.841Z,878
2023-03-06T11:08:14.110Z,871
2023-03-06T11:09:16.514Z,870
2023-03-06T11:10:39.586Z,863
2023-03-06T11:11:41.945Z,860
2023-03-06T11:12:45.093Z,856
2023-03-06T11:14:07.234Z,849
2023-03-06T11:15:10.121Z,845
2023-03-06T11:16:25.460Z,843
2023-03-06T11:17:29.128Z,841
2023-03-06T11:18:41.382Z,836
2023-03-06T11:19:44.590Z,834
2023-03-06T11:21:16.352Z,832
2023-03-06T11:22:09.602Z,827
2023-03-06T11:23:21.738Z,824
2023-03-06T11:24:24.602Z,823
2023-03-06T11:25:36.818Z,819
2023-03-06T11:26:51.000Z,817
2023-03-06T11:27:53.494Z,815
2023-03-06T11:29:06.678Z,812
2023-03-06T11:30:18.955Z,809
2023-03-06T11:31:32.196Z,807
2023-03-06T11:32:54.081Z,807
2023-03-06T11:33:47.604Z,805
2023-03-06T11:34:59.837Z,799
2023-03-06T11:36:03.094Z,799
2023-03-06T11:37:16.278Z,799
2023-03-06T11:38:29.611Z,795
2023-03-06T11:39:31.892Z,792
2023-03-06T11:40:45.067Z,791
2023-03-06T11:42:06.571Z,787
2023-03-06T11:43:29.119Z,786
2023-03-06T11:44:11.612Z,782
2023-03-06T11:45:23.763Z,781
2023-03-06T11:46:36.627Z,776
2023-03-06T11:47:49.872Z,775
2023-03-06T11:48:53.116Z,771
2023-03-06T11:50:05.275Z,768
2023-03-06T11:51:18.168Z,763
2023-03-06T11:52:20.461Z,763
2023-03-06T11:53:33.639Z,760
2023-03-06T11:54:45.799Z,752
2023-03-06T11:55:58.583Z,744
2023-03-06T11:57:00.864Z,745
2023-03-06T11:58:14.130Z,739
2023-03-06T11:59:26.212Z,734
2023-03-06T12:00:29.140Z,729
2023-03-06T12:01:41.313Z,728
2023-03-06T12:02:54.116Z,732
2023-03-06T12:04:06.252Z,733
2023-03-06T12:05:09.224Z,729
2023-03-06T12:06:21.400Z,733
2023-03-06T12:07:34.162Z,730
2023-03-06T12:08:46.323Z,729
2023-03-06T12:09:49.154Z,728
2023-03-06T12:11:01.283Z,726
2023-03-06T12:12:14.113Z,724
2023-03-06T12:13:16.342Z,724
2023-03-06T12:14:29.424Z,721
2023-03-06T12:16:01.127Z,723
2023-03-06T12:16:54.156Z,727
2023-03-06T12:17:56.426Z,727
2023-03-06T12:19:09.132Z,726
2023-03-06T12:20:21.243Z,727
2023-03-06T12:21:34.111Z,731
2023-03-06T12:22:36.361Z,730
2023-03-06T12:23:49.761Z,732
2023-03-06T12:25:21.452Z,732
2023-03-06T12:26:04.624Z,736
2023-03-06T12:27:16.874Z,738
2023-03-06T12:28:29.609Z,740
2023-03-06T12:29:41.750Z,742
2023-03-06T12:30:44.650Z,744
2023-03-06T12:31:56.803Z,745
2023-03-06T12:33:09.623Z,750
2023-03-06T12:34:11.872Z,753
2023-03-06T12:35:24.640Z,755
2023-03-06T12:36:36.995Z,759
2023-03-06T12:37:51.139Z,761
2023-03-06T12:38:53.302Z,765
2023-03-06T12:40:06.209Z,769
2023-03-06T12:41:18.484Z,773
2023-03-06T12:42:23.707Z,776
2023-03-06T12:43:36.496Z,780
2023-03-06T12:44:40.623Z,785
2023-03-06T12:45:52.780Z,792
2023-03-06T12:47:05.646Z,805
2023-03-06T12:48:07.904Z,816
2023-03-06T12:49:31.443Z,826
2023-03-06T12:50:34.388Z,825
2023-03-06T12:51:47.242Z,825
2023-03-06T12:52:49.406Z,835
2023-03-06T12:54:03.587Z,843
2023-03-06T12:55:17.063Z,849
2023-03-06T12:56:20.145Z,851
2023-03-06T12:57:32.261Z,859
2023-03-06T12:58:45.147Z,865
2023-03-06T12:59:47.402Z,869
2023-03-06T13:01:04.274Z,875
2023-03-06T13:02:06.942Z,875
2023-03-06T13:03:19.627Z,877
2023-03-06T13:04:31.718Z,880
2023-03-06T13:05:44.691Z,884
2023-03-06T13:06:50.846Z,886
2023-03-06T13:08:05.484Z,890
2023-03-06T13:09:07.714Z,889
2023-03-06T13:10:20.640Z,891
2023-03-06T13:11:22.906Z,892
2023-03-06T13:12:36.210Z,897
2023-03-06T13:13:48.293Z,900
2023-03-06T13:15:01.217Z,903
2023-03-06T13:16:03.487Z,906
2023-03-06T13:17:16.142Z,909
2023-03-06T13:18:28.192Z,913
2023-03-06T13:19:41.157Z,916
2023-03-06T13:20:43.301Z,917
2023-03-06T13:21:56.142Z,918
2023-03-06T13:23:08.192Z,921
2023-03-06T13:24:11.142Z,925
2023-03-06T13:25:23.260Z,926
2023-03-06T13:26:37.254Z,925
2023-03-06T13:27:39.841Z,929
2023-03-06T13:28:52.665Z,931
2023-03-06T13:30:04.638Z,931
2023-03-06T13:31:27.073Z,934
2023-03-06T13:32:20.085Z,936
2023-03-06T13:33:33.192Z,938
2023-03-06T13:34:45.255Z,941
2023-03-06T13:35:58.241Z,945
2023-03-06T13:37:00.572Z,947
2023-03-06T13:38:13.180Z,947
2023-03-06T13:39:25.250Z,948
2023-03-06T13:40:28.134Z,952
2023-03-06T13:41:40.305Z,951
2023-03-06T13:42:53.153Z,953
2023-03-06T13:43:55.286Z,954
2023-03-06T13:45:08.163Z,956
2023-03-06T13:46:20.245Z,959
2023-03-06T13:47:46.128Z,960
2023-03-06T13:48:45.296Z,961
2023-03-06T13:49:48.081Z,962
2023-03-06T13:51:00.746Z,965
2023-03-06T13:52:12.766Z,968
2023-03-06T13:53:15.632Z,969
2023-03-06T13:54:27.667Z,972
2023-03-06T13:55:40.669Z,974
2023-03-06T13:56:42.967Z,978
2023-03-06T13:57:55.672Z,981
2023-03-06T13:59:07.699Z,983
2023-03-06T14:00:20.637Z,984
2023-03-06T14:01:22.940Z,985
2023-03-06T14:02:37.705Z,986
2023-03-06T14:05:02.792Z,996
2023-03-06T14:06:06.785Z,1001
2023-03-06T14:07:19.392Z,1002
2023-03-06T14:08:21.564Z,1007
2023-03-06T14:09:34.428Z,1009
2023-03-06T14:10:46.358Z,1008
2023-03-06T14:11:49.396Z,1010
2023-03-06T14:13:01.399Z,1009
2023-03-06T14:14:13.925Z,1013
2023-03-06T14:15:27.418Z,1016
2023-03-06T14:16:37.569Z,1017
2023-03-06T14:17:39.864Z,1021
2023-03-06T14:18:52.388Z,1023
2023-03-06T14:20:04.364Z,1027
2023-03-06T14:22:33.716Z,1032
2023-03-06T14:23:27.376Z,1033
2023-03-06T14:24:40.361Z,1032
2023-03-06T14:25:52.360Z,1035
2023-03-06T14:26:55.454Z,1038
2023-03-06T14:28:14.032Z,1041
2023-03-06T14:29:17.354Z,1045
2023-03-06T14:30:38.990Z,1046
2023-03-06T14:31:41.862Z,1046
2023-03-06T14:32:43.972Z,1045
2023-03-06T14:33:56.882Z,1046
2023-03-06T14:35:08.920Z,1048
2023-03-06T14:36:21.882Z,1049
2023-03-06T14:37:24.526Z,1047
2023-03-06T14:38:37.850Z,1050
2023-03-06T14:39:49.902Z,1054
2023-03-06T14:40:52.915Z,1056
2023-03-06T14:42:05.078Z,1058
2023-03-06T14:43:17.878Z,1059
2023-03-06T14:44:20.016Z,1062
2023-03-06T14:45:32.887Z,1063
2023-03-06T14:46:44.998Z,1061
2023-03-06T14:47:59.377Z,1066
2023-03-06T14:49:01.654Z,1071
2023-03-06T14:50:14.360Z,1074
2023-03-06T14:51:26.486Z,1081
2023-03-06T14:52:29.379Z,1084
2023-03-06T14:53:41.367Z,1086
2023-03-06T14:54:54.459Z,1087
2023-03-06T14:55:56.731Z,1090
2023-03-06T14:57:09.399Z,1095
2023-03-06T14:58:21.493Z,1098
2023-03-06T14:59:34.394Z,1101
2023-03-06T15:00:37.863Z,1106
2023-03-06T15:01:51.460Z,1108
2023-03-06T15:03:03.704Z,1109
2023-03-06T15:04:06.937Z,1109
2023-03-06T15:05:18.997Z,1110
2023-03-06T15:06:31.885Z,1112
2023-03-06T15:07:33.985Z,1113
2023-03-06T15:08:46.924Z,1118
2023-03-06T15:09:58.986Z,1121
2023-03-06T15:11:11.881Z,1126
2023-03-06T15:12:13.979Z,1130
2023-03-06T15:13:26.891Z,1129
2023-03-06T15:14:39.031Z,1129
2023-03-06T15:15:42.395Z,1132
2023-03-06T15:16:54.611Z,1132
2023-03-06T15:18:07.388Z,1136
2023-03-06T15:19:19.569Z,1135
2023-03-06T15:20:22.935Z,1138
2023-03-06T15:21:35.077Z,1139
2023-03-06T15:22:47.916Z,1142
2023-03-06T15:23:50.140Z,1135
2023-03-06T15:25:02.926Z,1120
2023-03-06T15:26:15.098Z,1092
2023-03-06T15:27:28.397Z,1006
2023-03-06T15:28:30.698Z,991
2023-03-06T15:29:43.412Z,942
2023-03-06T15:30:55.555Z,906
2023-03-06T15:31:58.507Z,859
2023-03-06T15:33:10.780Z,834
2023-03-06T15:34:23.990Z,802
2023-03-06T15:35:26.337Z,765
2023-03-06T15:36:39.433Z,729
2023-03-06T15:37:51.640Z,686
2023-03-06T15:39:04.952Z,655
2023-03-06T15:40:07.481Z,629
2023-03-06T15:41:20.411Z,613
2023-03-06T15:42:32.715Z,604
2023-03-06T15:43:45.940Z,597
2023-03-06T15:44:48.539Z,601
2023-03-06T15:46:01.935Z,604
2023-03-06T15:47:15.843Z,606
2023-03-06T15:48:19.451Z,605
2023-03-06T15:49:34.393Z,606
2023-03-06T15:50:37.446Z,606
2023-03-06T15:51:49.745Z,609
2023-03-06T15:53:02.924Z,610
2023-03-06T15:54:11.586Z,610
2023-03-06T15:55:20.404Z,613